Reserve, New Mexico
Current Conditions -  °F | °C
As of 7:55 PM on Saturday 25 Oct 2014 (Local Time) from KJTC Reporting Station
Clear Clear  
Wind Chill: 54°   Ceiling: Unl
Heat Index: 54°   Visibility: 10mi
Dew Point: 37°   Wind: 5mph
Humidity: 54%   Direction: 190°S
Pressure: 30.34"   Gusts: NA
Location:  33.71°N, 108.76°W
Report Text: KJTC 260155Z AUTO 19004KT 10SM CLR 12/03 A3034 RMK AO2
Loading
Personal Weather Stations






























Interactive Weather Map
Tropical Storm Tracking
New forecast layout! Learn more

10-Day Weather Forecast

Advertisements
Track Severe Weather on mobile